LGKR

Details ICAO LGKR (CFU)
Name IOANNIS KAPODISTRIAS INTL
Region Greece
Timezone Europe/Athens (UTC+3.0)
Plans Departing 648
Arriving 928
Stats Elevation 6 ft / 2 m (AMSL)
Location 39.601779° 19.911908°
Runways 1
Magnetic Variation 4.149° E
Sunrise 2018-06-19 03:13:52 UTC / 2018-06-19 06:13:52 Local
Sunset 2018-06-19 18:12:01 UTC / 2018-06-19 21:12:01 Local
Advertisement - Login to hide

Runways

ID Width Length Bearing (true) Bearing (mag) Surface Threshold Offset Overrun Length
17 148 ft / 45 m 7,815 ft / 2,382 m 168.81° 164.66° Asphalt 1,348 ft / 411 m 0 ft / 0 m
35 148 ft / 45 m 7,815 ft / 2,382 m 348.81° 344.66° Asphalt 213 ft / 65 m 0 ft / 0 m

Map

Weather


0- 5 10 15 20 25 30 35+ Temperature / ° C

Clouds and Precipitation
Forecast for 2018-06-19 06:00 UTC. Updated 5 hours ago

Ground ~20,000 ft ~40,000 ft Winds

METAR

LGKR 190820Z VRB02KT CAVOK 26/19 Q1011 NOSIG

TAF

TAF LGKR 190500Z 1906/2006 VRB05KT 9999 FEW018 SCT080 PROB30 TEMPO 1910/1915 5000 TSRA FEW018CB SCT025 BKN080

Frequencies

Recorded 126.35 MHz ATIS
Tower 122.10 MHz KERKIRA TWR
Approach 122.10 MHz KERKIRA APP
Tower 120.85 MHz KERKIRA TWR
Approach 118.07 MHz KERKIRA APP
Approach 122.35 MHz KERKIRA APP
Warning: Do not use this data for real-world aviation or navigation. No guarantee of current accuracy is given.